createdAt,value
2019-01-05T00:02:16.158Z,7.10
2019-01-05T00:05:03.063Z,7.10
2019-01-05T00:07:35.865Z,7.10
2019-01-05T00:10:22.711Z,7.00
2019-01-05T00:13:09.653Z,7.10
2019-01-05T00:15:40.503Z,7.10
2019-01-05T00:18:12.461Z,7.10
2019-01-05T00:20:58.926Z,7.00
2019-01-05T00:23:41.678Z,7.10
2019-01-05T00:26:21.019Z,7.00
2019-01-05T00:28:58.301Z,7.00
2019-01-05T00:31:38.061Z,7.00
2019-01-05T00:34:28.064Z,6.90
2019-01-05T00:37:05.595Z,7.00
2019-01-05T00:39:53.183Z,7.00
2019-01-05T00:42:24.008Z,6.90
2019-01-05T00:45:13.250Z,7.00
2019-01-05T00:47:53.506Z,7.00
2019-01-05T00:50:42.694Z,6.90
2019-01-05T00:53:29.353Z,6.90
2019-01-05T00:56:12.050Z,6.90
2019-01-05T00:58:42.166Z,6.90
2019-01-05T01:01:21.339Z,6.90
2019-01-05T01:03:51.521Z,6.90
2019-01-05T01:06:30.714Z,6.90
2019-01-05T01:09:07.213Z,7.00
2019-01-05T01:11:40.550Z,7.00
2019-01-05T01:14:13.061Z,7.00
2019-01-05T01:17:01.489Z,7.00
2019-01-05T01:19:31.618Z,7.10
2019-01-05T01:22:07.735Z,7.10
2019-01-05T01:24:47.405Z,7.10
2019-01-05T01:27:17.926Z,7.10
2019-01-05T01:29:57.486Z,7.10
2019-01-05T01:32:27.641Z,7.10
2019-01-05T01:35:07.139Z,7.10
2019-01-05T01:38:18.689Z,7.10
2019-01-05T01:40:49.459Z,7.10
2019-01-05T01:43:35.561Z,7.00
2019-01-05T01:46:17.934Z,7.00
2019-01-05T01:48:51.524Z,7.10
2019-01-05T01:51:39.724Z,7.00
2019-01-05T01:54:15.950Z,7.10
2019-01-05T01:56:55.091Z,7.10
2019-01-05T01:59:28.218Z,7.20
2019-01-05T02:02:03.430Z,7.10
2019-01-05T02:04:42.454Z,7.20
2019-01-05T02:07:31.221Z,7.20
2019-01-05T02:10:02.571Z,7.20
2019-01-05T02:12:42.076Z,7.20
2019-01-05T02:15:31.230Z,7.20
2019-01-05T02:18:24.194Z,7.20
2019-01-05T02:21:08.463Z,7.10
2019-01-05T02:24:00.082Z,7.20
2019-01-05T02:27:06.522Z,7.10
2019-01-05T02:29:51.473Z,7.10
2019-01-05T02:32:33.827Z,7.10
2019-01-05T02:35:53.099Z,7.10
2019-01-05T02:39:02.542Z,7.10
2019-01-05T02:41:52.401Z,7.10
2019-01-05T02:44:52.948Z,7.00
2019-01-05T02:47:50.102Z,7.10
2019-01-05T02:51:01.074Z,7.10
2019-01-05T02:54:09.293Z,7.10
2019-01-05T02:56:53.680Z,7.10
2019-01-05T03:00:09.001Z,7.10
2019-01-05T03:03:09.555Z,7.20
2019-01-05T03:06:08.441Z,7.10
2019-01-05T03:09:02.296Z,7.10
2019-01-05T03:12:07.010Z,7.20
2019-01-05T03:15:02.792Z,7.20
2019-01-05T03:18:16.123Z,7.20
2019-01-05T03:21:01.319Z,7.20
2019-01-05T03:23:58.517Z,7.20
2019-01-05T03:27:00.383Z,7.20
2019-01-05T03:29:56.012Z,7.30
2019-01-05T03:32:57.319Z,7.30
2019-01-05T03:35:54.830Z,7.30
2019-01-05T03:38:58.416Z,7.30
2019-01-05T03:42:05.797Z,7.40
2019-01-05T03:44:56.810Z,7.40
2019-01-05T03:47:56.642Z,7.40
2019-01-05T03:51:06.291Z,7.40
2019-01-05T03:54:06.023Z,7.40
2019-01-05T03:57:03.055Z,7.40
2019-01-05T04:00:11.366Z,7.50
2019-01-05T04:03:00.027Z,7.50
2019-01-05T04:05:39.183Z,7.50
2019-01-05T04:08:29.328Z,7.50
2019-01-05T04:11:28.238Z,7.60
2019-01-05T04:14:04.389Z,7.60
2019-01-05T04:17:20.995Z,7.70
2019-01-05T04:20:27.475Z,7.70
2019-01-05T04:23:24.781Z,7.70
2019-01-05T04:26:16.174Z,7.60
2019-01-05T04:29:13.364Z,7.60
2019-01-05T04:32:13.425Z,7.70
2019-01-05T04:35:04.017Z,7.70
2019-01-05T04:38:01.415Z,7.70
2019-01-05T04:41:03.634Z,7.70
2019-01-05T04:43:55.994Z,7.80
2019-01-05T04:46:45.560Z,7.80
2019-01-05T04:49:27.659Z,7.90
2019-01-05T04:52:41.753Z,7.90
2019-01-05T04:55:50.232Z,8.00
2019-01-05T04:58:38.375Z,8.00
2019-01-05T05:01:47.595Z,7.90
2019-01-05T05:05:07.660Z,8.00
2019-01-05T05:08:00.270Z,8.00
2019-01-05T05:10:52.883Z,8.00
2019-01-05T05:13:34.686Z,8.00
2019-01-05T05:16:28.748Z,8.00
2019-01-05T05:19:50.266Z,8.10
2019-01-05T05:22:48.797Z,8.10
2019-01-05T05:25:41.257Z,8.10
2019-01-05T05:28:28.755Z,8.10
2019-01-05T05:31:35.470Z,8.10
2019-01-05T05:34:29.491Z,8.10
2019-01-05T05:37:35.388Z,8.10
2019-01-05T05:40:31.372Z,8.10
2019-01-05T05:43:43.297Z,8.10
2019-01-05T05:46:50.830Z,8.10
2019-01-05T05:49:49.343Z,8.10
2019-01-05T05:52:28.427Z,8.10
2019-01-05T05:55:38.226Z,8.10
2019-01-05T05:58:23.815Z,8.10
2019-01-05T06:01:25.859Z,8.00
2019-01-05T06:04:35.324Z,8.10
2019-01-05T06:07:24.899Z,8.10
2019-01-05T06:09:58.318Z,8.10
2019-01-05T06:13:01.699Z,8.10
2019-01-05T06:15:51.610Z,8.10
2019-01-05T06:18:46.064Z,8.20
2019-01-05T06:21:40.557Z,8.20
2019-01-05T06:24:43.213Z,8.20
2019-01-05T06:27:41.451Z,8.20
2019-01-05T06:30:46.339Z,8.20
2019-01-05T06:33:46.269Z,8.20
2019-01-05T06:36:45.363Z,8.20
2019-01-05T06:39:56.858Z,8.20
2019-01-05T06:43:14.273Z,8.20
2019-01-05T06:46:02.621Z,8.20
2019-01-05T06:49:16.551Z,8.20
2019-01-05T06:52:21.604Z,8.20
2019-01-05T06:55:29.715Z,8.20
2019-01-05T06:58:21.026Z,8.20
2019-01-05T07:01:19.350Z,8.20
2019-01-05T07:04:27.323Z,8.20
2019-01-05T07:07:33.342Z,8.20
2019-01-05T07:10:29.202Z,8.30
2019-01-05T07:13:46.472Z,8.20
2019-01-05T07:16:55.927Z,8.20
2019-01-05T07:20:10.839Z,8.20
2019-01-05T07:23:24.985Z,8.20
2019-01-05T07:26:31.254Z,8.20
2019-01-05T07:29:40.210Z,8.10
2019-01-05T07:32:53.422Z,8.20
2019-01-05T07:35:51.627Z,8.20
2019-01-05T07:38:25.094Z,8.10
2019-01-05T07:41:15.178Z,8.10
2019-01-05T07:44:26.155Z,8.10
2019-01-05T07:47:31.110Z,8.20
2019-01-05T07:50:36.843Z,8.20
2019-01-05T07:54:01.787Z,8.20
2019-01-05T07:57:08.349Z,8.20
2019-01-05T08:00:06.702Z,8.20
2019-01-05T08:03:05.819Z,8.20
2019-01-05T08:06:00.755Z,8.20
2019-01-05T08:08:54.068Z,8.20
2019-01-05T08:11:35.746Z,8.30
2019-01-05T08:14:30.825Z,8.30
2019-01-05T08:17:46.852Z,8.30
2019-01-05T08:21:09.905Z,8.30
2019-01-05T08:24:16.118Z,8.30
2019-01-05T08:27:31.499Z,8.30
2019-01-05T08:30:38.010Z,8.30
2019-01-05T08:33:46.473Z,8.20
2019-01-05T08:36:43.682Z,8.30
2019-01-05T08:40:06.899Z,8.30
2019-01-05T08:43:02.475Z,8.30
2019-01-05T08:46:04.742Z,8.30
2019-01-05T08:48:49.767Z,8.30
2019-01-05T08:51:51.890Z,8.40
2019-01-05T08:54:43.251Z,8.40
2019-01-05T08:57:54.591Z,8.40
2019-01-05T09:00:49.002Z,8.40
2019-01-05T09:03:49.525Z,8.40
2019-01-05T09:06:28.878Z,8.40
2019-01-05T09:09:50.786Z,8.40
2019-01-05T09:12:59.277Z,8.40
2019-01-05T09:15:56.960Z,8.40
2019-01-05T09:18:52.550Z,8.40
2019-01-05T09:21:51.482Z,8.40
2019-01-05T09:24:42.679Z,8.40
2019-01-05T09:27:27.277Z,8.30
2019-01-05T09:30:26.158Z,8.40
2019-01-05T09:33:24.997Z,8.40
2019-01-05T09:36:31.106Z,8.40
2019-01-05T09:39:55.921Z,8.40
2019-01-05T09:43:17.726Z,8.50
2019-01-05T09:46:24.128Z,8.50
2019-01-05T09:49:43.260Z,8.40
2019-01-05T09:52:46.407Z,8.50
2019-01-05T09:55:54.986Z,8.40
2019-01-05T09:58:48.906Z,8.50
2019-01-05T10:01:24.732Z,8.50
2019-01-05T10:04:34.476Z,8.50
2019-01-05T10:07:27.004Z,8.50
2019-01-05T10:10:30.014Z,8.50
2019-01-05T10:13:53.452Z,8.50
2019-01-05T10:16:49.117Z,8.60
2019-01-05T10:20:00.090Z,8.50
2019-01-05T10:22:55.673Z,8.50
2019-01-05T10:26:04.390Z,8.50
2019-01-05T10:29:12.193Z,8.50
2019-01-05T10:31:59.584Z,8.60
2019-01-05T10:34:44.886Z,8.50
2019-01-05T10:37:43.606Z,8.60
2019-01-05T10:40:55.081Z,8.60
2019-01-05T10:43:53.542Z,8.60
2019-01-05T10:46:38.838Z,8.60
2019-01-05T10:49:57.789Z,8.60
2019-01-05T10:53:05.596Z,8.60
2019-01-05T10:56:13.387Z,8.60
2019-01-05T10:59:14.995Z,8.60
2019-01-05T11:02:27.415Z,8.60
2019-01-05T11:05:39.129Z,8.50
2019-01-05T11:08:36.309Z,8.50
2019-01-05T11:11:14.815Z,8.50
2019-01-05T11:14:07.667Z,8.50
2019-01-05T11:17:13.688Z,8.60
2019-01-05T11:20:04.777Z,8.60
2019-01-05T11:22:46.630Z,8.60
2019-01-05T11:25:39.594Z,8.60
2019-01-05T11:28:44.408Z,8.70
2019-01-05T11:31:42.095Z,8.70
2019-01-05T11:34:46.797Z,8.70
2019-01-05T11:37:54.451Z,8.80
2019-01-05T11:40:50.665Z,8.80
2019-01-05T11:44:05.007Z,8.80
2019-01-05T11:47:00.727Z,8.80
2019-01-05T11:49:57.983Z,8.70
2019-01-05T11:52:49.597Z,8.70
2019-01-05T11:56:03.493Z,8.70
2019-01-05T11:59:23.334Z,8.80
2019-01-05T12:02:31.523Z,8.80
2019-01-05T12:05:25.220Z,8.80
2019-01-05T12:08:22.431Z,8.80
2019-01-05T12:11:13.705Z,8.80
2019-01-05T12:13:52.542Z,8.80
2019-01-05T12:16:40.900Z,8.90
2019-01-05T12:20:04.212Z,8.80
2019-01-05T12:23:04.588Z,8.90
2019-01-05T12:25:53.198Z,8.90
2019-01-05T12:28:49.136Z,8.90
2019-01-05T12:31:46.289Z,8.90
2019-01-05T12:34:24.914Z,8.90
2019-01-05T12:37:32.690Z,8.90
2019-01-05T12:40:52.992Z,8.90
2019-01-05T12:43:48.322Z,8.90
2019-01-05T12:46:51.591Z,8.80
2019-01-05T12:49:51.573Z,8.80
2019-01-05T12:52:27.491Z,8.90
2019-01-05T12:55:26.066Z,8.90
2019-01-05T12:58:17.496Z,8.90
2019-01-05T13:01:05.317Z,8.90
2019-01-05T13:03:55.188Z,8.90
2019-01-05T13:06:51.122Z,8.90
2019-01-05T13:09:24.627Z,8.90
2019-01-05T13:12:23.939Z,8.90
2019-01-05T13:15:09.204Z,8.90
2019-01-05T13:17:48.212Z,8.90
2019-01-05T13:20:45.089Z,9.00
2019-01-05T13:23:55.120Z,8.90
2019-01-05T13:26:57.783Z,8.90
2019-01-05T13:30:04.491Z,9.00
2019-01-05T13:33:02.759Z,9.00
2019-01-05T13:36:04.769Z,9.00
2019-01-05T13:38:47.125Z,8.90
2019-01-05T13:41:36.887Z,8.90
2019-01-05T13:44:27.742Z,8.90
2019-01-05T13:47:34.204Z,8.90
2019-01-05T13:50:59.496Z,8.80
2019-01-05T13:53:42.018Z,8.80
2019-01-05T13:56:34.075Z,8.80
2019-01-05T13:59:20.469Z,8.90
2019-01-05T14:02:05.415Z,8.80
2019-01-05T14:04:44.748Z,8.90
2019-01-05T14:07:20.415Z,8.90
2019-01-05T14:09:50.508Z,8.90
2019-01-05T14:12:23.067Z,8.90
2019-01-05T14:14:53.434Z,8.90
2019-01-05T14:17:23.464Z,9.00
2019-01-05T14:19:59.263Z,9.00
2019-01-05T14:22:45.898Z,9.10
2019-01-05T14:25:16.351Z,9.00
2019-01-05T14:28:01.800Z,9.00
2019-01-05T14:30:34.965Z,9.00
2019-01-05T14:33:10.694Z,9.00
2019-01-05T14:35:44.020Z,9.00
2019-01-05T14:38:14.438Z,9.10
2019-01-05T14:40:53.281Z,9.00
2019-01-05T14:43:41.762Z,9.00
2019-01-05T14:46:26.935Z,9.00
2019-01-05T14:49:03.065Z,9.00
2019-01-05T14:51:33.105Z,9.00
2019-01-05T14:54:18.076Z,9.00
2019-01-05T14:56:51.335Z,9.00
2019-01-05T14:59:39.566Z,9.00
2019-01-05T15:02:25.884Z,9.00
2019-01-05T15:05:01.895Z,9.10
2019-01-05T15:07:38.287Z,9.00
2019-01-05T15:10:14.869Z,9.00
2019-01-05T15:13:00.037Z,9.00
2019-01-05T15:15:45.300Z,9.00
2019-01-05T15:18:27.453Z,9.00
2019-01-05T15:21:06.639Z,9.00
2019-01-05T15:23:39.226Z,9.00
2019-01-05T15:26:24.073Z,9.00
2019-01-05T15:28:54.412Z,9.00
2019-01-05T15:31:27.786Z,9.00
2019-01-05T15:34:12.850Z,9.00
2019-01-05T15:36:42.959Z,9.00
2019-01-05T15:39:29.282Z,9.00
2019-01-05T15:42:08.130Z,9.00
2019-01-05T15:44:38.171Z,8.90
2019-01-05T15:47:08.558Z,8.90
2019-01-05T15:49:41.545Z,8.90
2019-01-05T15:52:26.711Z,8.90
2019-01-05T15:55:05.945Z,8.90
2019-01-05T15:57:52.653Z,8.80
2019-01-05T16:00:25.852Z,8.80
2019-01-05T16:02:58.635Z,8.70
2019-01-05T16:05:28.953Z,8.80
2019-01-05T16:08:15.319Z,8.70
2019-01-05T16:11:03.688Z,8.70
2019-01-05T16:13:39.287Z,8.70
2019-01-05T16:16:26.125Z,8.70
2019-01-05T16:19:12.867Z,8.70
2019-01-05T16:21:43.278Z,8.70
2019-01-05T16:24:29.407Z,8.70
2019-01-05T16:27:15.481Z,8.70
2019-01-05T16:29:51.659Z,8.80
2019-01-05T16:32:38.550Z,8.80
2019-01-05T16:35:23.709Z,8.80
2019-01-05T16:37:53.812Z,8.70
2019-01-05T16:40:41.758Z,8.80
2019-01-05T16:43:28.591Z,8.80
2019-01-05T16:46:10.590Z,8.80
2019-01-05T16:48:56.684Z,8.70
2019-01-05T16:51:43.277Z,8.70
2019-01-05T16:54:29.504Z,8.70
2019-01-05T16:57:14.598Z,8.60
2019-01-05T16:59:51.016Z,8.60
2019-01-05T17:02:27.378Z,8.60
2019-01-05T17:05:15.731Z,8.60
2019-01-05T17:07:51.495Z,8.60
2019-01-05T17:10:27.530Z,8.60
2019-01-05T17:13:03.227Z,8.60
2019-01-05T17:15:50.083Z,8.70
2019-01-05T17:18:32.197Z,8.60
2019-01-05T17:21:14.608Z,8.60
2019-01-05T17:24:00.063Z,8.60
2019-01-05T17:26:36.197Z,8.60
2019-01-05T17:29:21.917Z,8.60
2019-01-05T17:32:01.207Z,8.60
2019-01-05T17:34:46.734Z,8.70
2019-01-05T17:37:22.454Z,8.70
2019-01-05T17:39:52.536Z,8.70
2019-01-05T17:42:31.888Z,8.70
2019-01-05T17:45:20.198Z,8.70
2019-01-05T17:48:06.306Z,8.80
2019-01-05T17:50:36.354Z,8.90
2019-01-05T17:53:06.727Z,8.90
2019-01-05T17:55:37.173Z,8.80
2019-01-05T17:58:13.262Z,8.80
2019-01-05T18:00:49.412Z,8.80
2019-01-05T18:03:36.410Z,8.80
2019-01-05T18:06:09.182Z,8.80
2019-01-05T18:08:51.546Z,8.80
2019-01-05T18:11:34.009Z,8.80
2019-01-05T18:14:20.383Z,8.80
2019-01-05T18:16:53.517Z,8.80
2019-01-05T18:19:23.610Z,8.70
2019-01-05T18:21:56.629Z,8.70
2019-01-05T18:24:29.971Z,8.70
2019-01-05T18:27:02.964Z,8.70
2019-01-05T18:29:36.140Z,8.70
2019-01-05T18:32:09.307Z,8.70
2019-01-05T18:34:39.766Z,8.80
2019-01-05T18:37:28.433Z,8.70
2019-01-05T18:39:58.627Z,8.80
2019-01-05T18:42:35.004Z,8.70
2019-01-05T18:45:08.102Z,8.70
2019-01-05T18:47:44.035Z,8.80
2019-01-05T18:50:26.678Z,8.70
2019-01-05T18:53:13.347Z,8.80
2019-01-05T18:55:52.532Z,8.70
2019-01-05T18:58:39.222Z,8.80
2019-01-05T19:01:20.994Z,8.70
2019-01-05T19:03:54.431Z,8.70
2019-01-05T19:06:33.670Z,8.70
2019-01-05T19:09:20.337Z,8.70
2019-01-05T19:11:53.603Z,8.70
2019-01-05T19:14:23.736Z,8.80
2019-01-05T19:17:10.333Z,8.80
2019-01-05T19:19:56.951Z,8.80
2019-01-05T19:22:36.077Z,8.70
2019-01-05T19:25:10.136Z,8.70
2019-01-05T19:27:43.438Z,8.70
2019-01-05T19:30:28.694Z,8.70
2019-01-05T19:33:15.461Z,8.70
2019-01-05T19:35:48.865Z,8.70
2019-01-05T19:38:28.102Z,8.70
2019-01-05T19:41:04.050Z,8.70
2019-01-05T19:43:40.522Z,8.70
2019-01-05T19:46:27.434Z,8.80
2019-01-05T19:49:15.336Z,8.80
2019-01-05T19:51:45.408Z,8.80
2019-01-05T19:54:32.113Z,8.80
2019-01-05T19:57:17.569Z,8.80
2019-01-05T20:00:04.284Z,8.70
2019-01-05T20:02:50.686Z,8.80
2019-01-05T20:05:37.292Z,8.70
2019-01-05T20:08:10.351Z,8.70
2019-01-05T20:10:46.750Z,8.60
2019-01-05T20:13:17.173Z,8.60
2019-01-05T20:15:49.975Z,8.60
2019-01-05T20:18:36.478Z,8.70
2019-01-05T20:21:07.005Z,8.70
2019-01-05T20:23:53.371Z,8.70
2019-01-05T20:26:35.783Z,8.70
2019-01-05T20:29:22.499Z,8.60
2019-01-05T20:32:09.217Z,8.60
2019-01-05T20:34:39.357Z,8.60
2019-01-05T20:37:12.518Z,8.60
2019-01-05T20:39:42.593Z,8.70
2019-01-05T20:42:13.078Z,8.70
2019-01-05T20:44:49.327Z,8.70
2019-01-05T20:47:36.392Z,8.70
2019-01-05T20:50:26.940Z,8.70
2019-01-05T20:53:12.112Z,8.70
2019-01-05T20:55:50.995Z,8.70
2019-01-05T20:58:27.296Z,8.70
2019-01-05T21:01:03.468Z,8.70
2019-01-05T21:03:36.566Z,8.70
2019-01-05T21:06:12.815Z,8.80
2019-01-05T21:08:54.638Z,8.70
2019-01-05T21:11:41.215Z,8.80
2019-01-05T21:14:27.912Z,8.80
2019-01-05T21:17:03.970Z,8.70
2019-01-05T21:19:49.448Z,8.70
2019-01-05T21:22:25.403Z,8.60
2019-01-05T21:25:11.707Z,8.60
2019-01-05T21:27:51.272Z,8.60
2019-01-05T21:30:24.749Z,8.50
2019-01-05T21:33:04.372Z,8.60
2019-01-05T21:35:34.826Z,8.60
2019-01-05T21:38:07.317Z,8.60
2019-01-05T21:40:43.139Z,8.60
2019-01-05T21:43:29.870Z,8.70
2019-01-05T21:46:16.569Z,8.70
2019-01-05T21:48:52.926Z,8.70
2019-01-05T21:51:39.518Z,8.70
2019-01-05T21:54:15.131Z,8.70
2019-01-05T21:57:01.987Z,8.70
2019-01-05T21:59:37.926Z,8.70
2019-01-05T22:02:08.039Z,8.70
2019-01-05T22:04:38.478Z,8.70
2019-01-05T22:07:08.552Z,8.70
2019-01-05T22:09:50.573Z,8.70
2019-01-05T22:12:20.924Z,8.70
2019-01-05T22:14:56.883Z,8.70
2019-01-05T22:17:43.459Z,8.70
2019-01-05T22:20:16.558Z,8.70
2019-01-05T22:22:49.542Z,8.60
2019-01-05T22:25:25.467Z,8.60
2019-01-05T22:27:55.781Z,8.70
2019-01-05T22:30:42.308Z,8.60
2019-01-05T22:33:12.678Z,8.60
2019-01-05T22:35:54.868Z,8.60
2019-01-05T22:38:43.413Z,8.60
2019-01-05T22:41:31.552Z,8.60
2019-01-05T22:44:10.902Z,8.60
2019-01-05T22:46:40.948Z,8.60
2019-01-05T22:49:27.723Z,8.60
2019-01-05T22:52:01.002Z,8.60
2019-01-05T22:54:47.241Z,8.60
2019-01-05T22:57:33.805Z,8.50
2019-01-05T23:00:20.209Z,8.50
2019-01-05T23:02:56.367Z,8.50
2019-01-05T23:05:26.790Z,8.50
2019-01-05T23:07:56.855Z,8.40
2019-01-05T23:10:27.234Z,8.40
2019-01-05T23:12:57.559Z,8.40
2019-01-05T23:15:27.647Z,8.50
2019-01-05T23:18:06.484Z,8.50
2019-01-05T23:20:39.283Z,8.50
2019-01-05T23:23:18.414Z,8.50
2019-01-05T23:25:48.852Z,8.50
2019-01-05T23:28:25.014Z,8.50
2019-01-05T23:31:03.927Z,8.50
2019-01-05T23:33:36.479Z,8.50
2019-01-05T23:36:09.389Z,8.40
2019-01-05T23:38:51.803Z,8.50
2019-01-05T23:41:24.359Z,8.50
2019-01-05T23:43:57.802Z,8.50
2019-01-05T23:46:27.850Z,8.40
2019-01-05T23:49:06.734Z,8.40
2019-01-05T23:51:39.894Z,8.40
2019-01-05T23:54:15.594Z,8.50
2019-01-05T23:56:51.619Z,8.50
2019-01-05T23:59:22.255Z,8.40
